Time;durP1;ratioP1;P1;durP2;ratioP2;P2;SDS_P1;SDS_P2;PMS_P1;PMS_P2;Temp;Humidity;BMP_temperature;BMP_pressure;BME280_temperature;BME280_humidity;BME280_pressure;Samples;Min_cycle;Max_cycle;Signal;HPM_P1;HPM_P2
2021/10/16 15:06:23;;;;;;;95.17;25.83;;;;;;;;;;5158674;27;1362687;-95
2021/10/16 15:08:50;;;;;;;84.57;23.37;;;;;;;;;;5127885;22;20233;-96
2021/10/16 15:14:00;;;;;;;90.57;28.50;;;;;;;;;;5103990;28;20450;-95
2021/10/16 15:16:28;;;;;;;83.67;23.70;;;;;;;;;;5106304;28;20431;-96
2021/10/16 15:18:59;;;;;;;78.67;20.87;;;;;;;;;;5105553;28;20451;-95
2021/10/16 15:21:32;;;;;;;75.90;18.30;;;;;;;;;;5103862;28;20431;-96
2021/10/16 15:23:59;;;;;;;77.57;20.67;;;;;;;;;;5085276;28;20487;-95
2021/10/16 15:31:41;;;;;;;72.87;18.30;;;;;;;;;;5081955;28;20505;-95
2021/10/16 15:34:11;;;;;;;74.17;17.87;;;;;;;;;;5086046;28;20537;-93
2021/10/16 15:36:41;;;;;;;77.17;18.13;;;;;;;;;;5103581;22;20491;-93
2021/10/16 15:39:09;;;;;;;74.57;19.37;;;;;;;;;;5099518;28;20456;-94
2021/10/16 15:41:37;;;;;;;76.57;19.77;;;;;;;;;;5067281;28;20498;-94
2021/10/16 15:44:04;;;;;;;73.00;19.03;;;;;;;;;;5081953;28;20463;-92
2021/10/16 15:46:30;;;;;;;72.57;17.47;;;;;;;;;;5100471;28;20534;-95
2021/10/16 15:49:07;;;;;;;70.80;17.77;;;;;;;;;;5115341;22;20567;-94
2021/10/16 15:51:34;;;;;;;70.60;17.37;;;;;;;;;;5104366;28;20461;-94
2021/10/16 15:54:02;;;;;;;69.80;16.60;;;;;;;;;;5108452;28;21029;-96
2021/10/16 15:56:29;;;;;;;72.77;16.50;;;;;;;;;;5107646;28;20440;-95
2021/10/16 15:58:55;;;;;;;70.67;15.83;;;;;;;;;;5104524;28;20462;-93
2021/10/16 16:01:55;;;;;;;71.07;15.80;;;;;;;;;;5119352;22;20498;-96
2021/10/16 16:04:26;;;;;;;70.47;15.73;;;;;;;;;;5107670;28;20530;-94
2021/10/16 16:06:54;;;;;;;69.10;14.97;;;;;;;;;;5110144;28;20475;-96
2021/10/16 16:09:23;;;;;;;113.53;40.13;;;;;;;;;;5103855;28;20463;-95
2021/10/16 16:11:57;;;;;;;77.53;20.20;;;;;;;;;;5106254;28;20511;-96
2021/10/16 16:17:13;;;;;;;70.47;16.50;;;;;;;;;;4983245;23;20480;-94
2021/10/16 16:27:42;;;;;;;75.70;18.17;;;;;;;;;;5326126;22;20490;-95
2021/10/16 16:30:25;;;;;;;90.80;24.80;;;;;;;;;;5111619;28;20518;-94
2021/10/16 16:38:31;;;;;;;69.73;14.70;;;;;;;;;;5076391;28;20450;-95
2021/10/16 16:40:59;;;;;;;68.60;14.80;;;;;;;;;;5256567;22;20467;-96
2021/10/16 16:43:49;;;;;;;69.80;14.87;;;;;;;;;;5091533;28;20450;-96
2021/10/16 16:46:19;;;;;;;69.27;14.10;;;;;;;;;;5091377;28;20562;-95
2021/10/16 16:48:51;;;;;;;68.17;14.27;;;;;;;;;;5092161;28;20444;-95
2021/10/16 16:54:10;;;;;;;69.13;13.13;;;;;;;;;;5091014;28;20477;-96
2021/10/16 16:56:48;;;;;;;67.50;13.80;;;;;;;;;;5094523;23;20437;-96
2021/10/16 16:59:15;;;;;;;71.50;13.57;;;;;;;;;;5101672;28;20528;-94
2021/10/16 17:01:44;;;;;;;67.77;13.80;;;;;;;;;;5107750;28;20902;-96
2021/10/16 17:04:19;;;;;;;66.93;13.67;;;;;;;;;;5109233;28;20437;-94
2021/10/16 17:06:51;;;;;;;67.27;12.97;;;;;;;;;;5112096;28;20442;-96
2021/10/16 17:09:18;;;;;;;68.07;13.43;;;;;;;;;;5097987;22;20823;-96
2021/10/16 17:11:44;;;;;;;68.30;13.37;;;;;;;;;;5089199;28;20428;-94
2021/10/16 17:14:16;;;;;;;67.57;13.83;;;;;;;;;;5101474;22;20460;-96
2021/10/16 17:16:44;;;;;;;68.10;13.60;;;;;;;;;;5045030;28;20541;-94
2021/10/16 17:19:11;;;;;;;70.73;13.57;;;;;;;;;;5044628;28;20499;-96
2021/10/16 17:21:38;;;;;;;70.60;14.30;;;;;;;;;;5041615;28;20502;-94
2021/10/16 17:24:09;;;;;;;67.90;14.23;;;;;;;;;;5113181;23;20528;-95
2021/10/16 17:26:39;;;;;;;67.97;13.87;;;;;;;;;;5090204;28;20492;-96
2021/10/16 17:29:07;;;;;;;66.97;13.97;;;;;;;;;;5088123;28;20437;-94
2021/10/16 17:31:44;;;;;;;67.70;13.60;;;;;;;;;;5088373;28;20463;-96
2021/10/16 17:34:15;;;;;;;68.30;13.17;;;;;;;;;;5090677;28;20830;-95
2021/10/16 17:36:42;;;;;;;67.73;13.20;;;;;;;;;;5070888;28;20457;-96
2021/10/16 17:39:09;;;;;;;68.20;13.30;;;;;;;;;;5087641;28;20480;-96
2021/10/16 17:41:36;;;;;;;70.57;13.13;;;;;;;;;;5086594;28;20456;-96
2021/10/16 17:44:03;;;;;;;67.00;13.50;;;;;;;;;;5092079;28;20447;-95
2021/10/16 17:46:35;;;;;;;65.80;12.03;;;;;;;;;;5088341;28;20583;-95
2021/10/16 17:49:02;;;;;;;70.40;13.93;;;;;;;;;;5086831;28;20433;-93
2021/10/16 17:51:31;;;;;;;68.40;13.80;;;;;;;;;;5087307;28;20458;-95
2021/10/16 17:53:57;;;;;;;69.57;13.17;;;;;;;;;;5085395;28;20461;-96
2021/10/16 17:56:24;;;;;;;66.67;12.77;;;;;;;;;;5086220;28;20679;-96
2021/10/16 17:58:54;;;;;;;70.17;13.40;;;;;;;;;;5090881;28;20451;-96
2021/10/16 18:01:22;;;;;;;69.20;13.77;;;;;;;;;;5087827;28;20445;-96
2021/10/16 18:04:08;;;;;;;68.10;14.00;;;;;;;;;;5093612;28;20425;-96
2021/10/16 18:06:38;;;;;;;68.50;14.20;;;;;;;;;;5090839;28;20489;-96
2021/10/16 18:09:06;;;;;;;68.03;13.07;;;;;;;;;;5090258;28;20463;-95
2021/10/16 18:11:37;;;;;;;69.93;13.93;;;;;;;;;;5092805;28;20512;-96
2021/10/16 18:14:03;;;;;;;68.50;14.30;;;;;;;;;;5089451;28;20471;-95
2021/10/16 18:16:32;;;;;;;68.20;13.37;;;;;;;;;;5087805;28;21272;-95
2021/10/16 18:18:58;;;;;;;67.60;13.43;;;;;;;;;;5089891;28;20443;-94
2021/10/16 18:21:26;;;;;;;67.87;13.37;;;;;;;;;;5089249;28;20477;-95
2021/10/16 18:23:54;;;;;;;68.87;13.97;;;;;;;;;;5086168;28;20485;-96
2021/10/16 18:26:21;;;;;;;67.37;13.77;;;;;;;;;;5084260;28;20498;-94
2021/10/16 18:28:52;;;;;;;67.67;13.40;;;;;;;;;;5087808;28;20464;-96
2021/10/16 18:31:19;;;;;;;67.80;14.07;;;;;;;;;;5090436;28;20440;-95
2021/10/16 18:33:48;;;;;;;69.97;14.10;;;;;;;;;;5096703;28;20440;-95
2021/10/16 18:36:15;;;;;;;67.30;13.20;;;;;;;;;;5090838;28;20449;-94
2021/10/16 18:38:41;;;;;;;69.30;13.93;;;;;;;;;;5088390;28;20451;-96
2021/10/16 18:41:09;;;;;;;69.47;14.17;;;;;;;;;;5084865;28;20452;-95
2021/10/16 18:43:36;;;;;;;67.40;14.00;;;;;;;;;;5086069;28;20467;-94
2021/10/16 18:46:06;;;;;;;66.97;13.20;;;;;;;;;;5070941;28;20495;-95
2021/10/16 18:48:32;;;;;;;67.90;13.93;;;;;;;;;;5070468;28;20449;-93
2021/10/16 18:50:58;;;;;;;66.67;13.10;;;;;;;;;;5085567;28;20471;-96
2021/10/16 18:53:25;;;;;;;67.57;13.57;;;;;;;;;;5087671;28;20518;-94
2021/10/16 18:55:57;;;;;;;68.53;13.30;;;;;;;;;;5088107;28;20439;-96
2021/10/16 18:58:27;;;;;;;69.77;13.20;;;;;;;;;;5085711;28;20445;-96
2021/10/16 19:00:54;;;;;;;67.70;13.87;;;;;;;;;;5090600;28;20501;-95
2021/10/16 19:03:24;;;;;;;68.50;13.90;;;;;;;;;;5087237;28;20462;-96
2021/10/16 19:05:50;;;;;;;69.10;13.40;;;;;;;;;;5084667;28;20475;-96
2021/10/16 19:08:17;;;;;;;69.10;13.77;;;;;;;;;;5084821;28;20463;-95
2021/10/16 19:10:43;;;;;;;68.93;13.77;;;;;;;;;;5083771;28;20458;-95
2021/10/16 19:15:53;;;;;;;68.50;14.70;;;;;;;;;;5079902;28;20475;-95
2021/10/16 19:18:20;;;;;;;67.57;13.20;;;;;;;;;;5082833;28;20448;-95
2021/10/16 19:20:46;;;;;;;72.10;14.17;;;;;;;;;;5083605;28;20451;-93
2021/10/16 19:23:13;;;;;;;70.60;14.80;;;;;;;;;;5081936;28;20506;-94
2021/10/16 19:25:39;;;;;;;67.57;13.60;;;;;;;;;;5082763;28;20476;-94
2021/10/16 19:28:06;;;;;;;67.77;13.77;;;;;;;;;;5076973;28;20520;-95
2021/10/16 19:30:33;;;;;;;69.70;14.73;;;;;;;;;;5080292;28;20489;-94
2021/10/16 19:33:01;;;;;;;70.00;14.57;;;;;;;;;;5081813;28;20455;-94
2021/10/16 19:35:28;;;;;;;66.77;14.00;;;;;;;;;;5081417;28;20443;-95
2021/10/16 19:37:55;;;;;;;66.43;13.63;;;;;;;;;;5081865;28;20460;-96
2021/10/16 19:40:22;;;;;;;66.93;13.83;;;;;;;;;;5079125;28;20460;-94
2021/10/16 19:42:49;;;;;;;65.90;13.43;;;;;;;;;;5079207;28;20443;-95
2021/10/16 19:45:15;;;;;;;66.20;13.33;;;;;;;;;;5081132;28;20445;-95
2021/10/16 19:47:42;;;;;;;71.17;13.73;;;;;;;;;;5081499;28;20443;-94
2021/10/16 19:50:10;;;;;;;68.17;13.23;;;;;;;;;;5082672;28;20474;-94
2021/10/16 19:52:37;;;;;;;68.10;13.33;;;;;;;;;;5086597;28;20461;-93
2021/10/16 19:55:04;;;;;;;67.50;13.37;;;;;;;;;;5085349;28;20453;-93
2021/10/16 19:57:32;;;;;;;67.83;12.63;;;;;;;;;;5087426;28;20456;-94
2021/10/16 19:59:58;;;;;;;68.33;13.87;;;;;;;;;;5085896;28;20469;-95
2021/10/16 20:02:28;;;;;;;75.97;14.93;;;;;;;;;;5086034;28;20516;-93
2021/10/16 20:04:55;;;;;;;67.50;13.57;;;;;;;;;;5084915;28;20451;-93
2021/10/16 20:07:23;;;;;;;67.10;13.03;;;;;;;;;;5085031;28;20495;-94
2021/10/16 20:09:49;;;;;;;70.67;13.43;;;;;;;;;;5085311;28;20486;-95
2021/10/16 20:12:17;;;;;;;70.40;14.00;;;;;;;;;;5086335;28;20502;-95
2021/10/16 20:14:44;;;;;;;68.97;13.90;;;;;;;;;;5087102;28;20531;-96
2021/10/16 20:17:11;;;;;;;69.13;13.83;;;;;;;;;;5085654;28;20985;-94
2021/10/16 20:19:37;;;;;;;68.00;13.20;;;;;;;;;;5083377;28;20452;-95
2021/10/16 20:22:04;;;;;;;68.30;13.70;;;;;;;;;;5084207;28;20521;-94
2021/10/16 20:24:35;;;;;;;69.50;13.33;;;;;;;;;;5078163;28;20482;-93
2021/10/16 20:27:04;;;;;;;67.50;13.23;;;;;;;;;;5082081;28;20487;-95
2021/10/16 20:29:31;;;;;;;68.17;14.20;;;;;;;;;;5077075;28;20474;-92
2021/10/16 20:31:58;;;;;;;68.00;14.30;;;;;;;;;;5063851;28;20442;-94
2021/10/16 20:34:24;;;;;;;66.97;13.80;;;;;;;;;;5070378;28;20455;-96
2021/10/16 20:36:51;;;;;;;68.30;13.50;;;;;;;;;;5085081;28;20449;-96
2021/10/16 20:39:18;;;;;;;66.50;12.83;;;;;;;;;;5077771;28;20456;-94
2021/10/16 20:41:46;;;;;;;68.90;12.40;;;;;;;;;;5083254;28;20505;-94
2021/10/16 20:44:12;;;;;;;68.60;13.53;;;;;;;;;;5083170;28;21024;-93
2021/10/16 20:46:39;;;;;;;70.57;13.00;;;;;;;;;;5078774;28;20492;-94
2021/10/16 20:49:05;;;;;;;67.30;12.60;;;;;;;;;;5085073;28;20445;-94
2021/10/16 20:51:32;;;;;;;73.67;12.90;;;;;;;;;;5064557;28;20456;-94
2021/10/16 20:53:58;;;;;;;70.73;12.50;;;;;;;;;;5065213;28;20461;-94
2021/10/16 20:56:25;;;;;;;70.03;13.30;;;;;;;;;;5082327;28;20529;-94
2021/10/16 20:58:53;;;;;;;68.97;12.57;;;;;;;;;;5082403;28;20445;-93
2021/10/16 21:01:19;;;;;;;66.17;11.70;;;;;;;;;;5083849;28;20451;-95
2021/10/16 21:03:46;;;;;;;66.47;11.97;;;;;;;;;;5084688;28;20491;-93
2021/10/16 21:06:12;;;;;;;68.37;12.57;;;;;;;;;;5066878;28;20518;-95
2021/10/16 21:08:44;;;;;;;67.80;12.60;;;;;;;;;;5061331;28;20442;-96
2021/10/16 21:11:13;;;;;;;66.60;12.07;;;;;;;;;;5051095;28;20448;-94
2021/10/16 21:13:40;;;;;;;67.80;12.70;;;;;;;;;;5064042;28;20508;-95
2021/10/16 21:16:07;;;;;;;66.70;12.83;;;;;;;;;;5063334;28;20452;-94
2021/10/16 21:18:34;;;;;;;66.77;12.90;;;;;;;;;;5064178;28;20470;-93
2021/10/16 21:21:01;;;;;;;65.80;11.80;;;;;;;;;;5065961;28;20506;-96
2021/10/16 21:23:31;;;;;;;66.83;11.90;;;;;;;;;;5072107;28;20483;-95
2021/10/16 21:25:59;;;;;;;66.17;11.80;;;;;;;;;;5066450;28;20444;-95
2021/10/16 21:28:26;;;;;;;65.57;12.03;;;;;;;;;;5061362;28;20455;-95
2021/10/16 21:30:52;;;;;;;69.93;13.20;;;;;;;;;;5067610;28;20447;-93
2021/10/16 21:33:21;;;;;;;68.47;12.50;;;;;;;;;;5079823;28;20433;-95
2021/10/16 21:35:47;;;;;;;66.97;11.83;;;;;;;;;;5072040;28;20496;-94
2021/10/16 21:38:14;;;;;;;66.77;12.03;;;;;;;;;;5067737;28;20535;-95
2021/10/16 21:40:42;;;;;;;65.97;11.70;;;;;;;;;;5063029;28;20479;-96
2021/10/16 21:43:12;;;;;;;66.17;11.17;;;;;;;;;;5064440;28;20456;-95
2021/10/16 21:45:39;;;;;;;66.80;11.60;;;;;;;;;;5061700;28;20449;-95
2021/10/16 21:48:15;;;;;;;68.63;11.80;;;;;;;;;;5059956;28;20526;-95
2021/10/16 21:50:45;;;;;;;69.93;11.67;;;;;;;;;;5063631;28;20463;-94
2021/10/16 21:53:11;;;;;;;67.33;11.53;;;;;;;;;;5063184;28;20515;-95
2021/10/16 21:55:38;;;;;;;65.73;11.50;;;;;;;;;;5068495;28;20435;-93
2021/10/16 21:58:05;;;;;;;67.60;11.33;;;;;;;;;;5080289;28;20466;-94
2021/10/16 22:00:35;;;;;;;66.13;11.83;;;;;;;;;;5072230;28;21035;-95
2021/10/16 22:03:02;;;;;;;69.40;11.67;;;;;;;;;;5062503;28;20474;-96
2021/10/16 22:05:28;;;;;;;66.40;11.67;;;;;;;;;;5062590;28;20441;-93
2021/10/16 22:07:56;;;;;;;67.57;11.73;;;;;;;;;;5063314;28;20549;-94
2021/10/16 22:10:23;;;;;;;67.87;12.20;;;;;;;;;;5074517;28;20464;-95
2021/10/16 22:12:49;;;;;;;66.60;11.10;;;;;;;;;;5060617;28;20518;-96
2021/10/16 22:15:16;;;;;;;67.17;12.00;;;;;;;;;;5060748;28;20840;-96
2021/10/16 22:17:43;;;;;;;69.43;11.20;;;;;;;;;;5064560;28;20475;-96
2021/10/16 22:20:10;;;;;;;69.30;12.43;;;;;;;;;;5061522;28;20448;-95
2021/10/16 22:22:36;;;;;;;70.00;12.30;;;;;;;;;;5063187;28;20475;-95
2021/10/16 22:25:05;;;;;;;67.40;12.00;;;;;;;;;;5095976;28;20770;-94
2021/10/16 22:27:31;;;;;;;71.00;12.47;;;;;;;;;;5083169;28;20495;-94
2021/10/16 22:29:58;;;;;;;66.43;12.57;;;;;;;;;;5084938;28;20449;-92
2021/10/16 22:32:24;;;;;;;67.33;11.67;;;;;;;;;;5082653;28;20509;-92
2021/10/16 22:34:51;;;;;;;68.97;11.50;;;;;;;;;;5082528;28;20481;-94
2021/10/16 22:37:17;;;;;;;66.97;12.17;;;;;;;;;;5082450;28;20508;-93
2021/10/16 22:39:44;;;;;;;66.77;12.20;;;;;;;;;;5082767;28;20452;-95
2021/10/16 22:42:12;;;;;;;71.90;12.13;;;;;;;;;;5061613;28;20452;-94
2021/10/16 22:44:39;;;;;;;67.73;12.47;;;;;;;;;;5060849;28;20460;-94
2021/10/16 22:47:06;;;;;;;68.13;12.97;;;;;;;;;;5079395;28;20486;-94
2021/10/16 22:49:34;;;;;;;68.90;13.07;;;;;;;;;;5080008;28;20452;-92
2021/10/16 22:52:01;;;;;;;69.40;12.80;;;;;;;;;;5079351;28;20443;-93
2021/10/16 22:54:27;;;;;;;69.00;12.47;;;;;;;;;;5080818;28;20451;-93
2021/10/16 22:56:54;;;;;;;66.07;12.03;;;;;;;;;;5085825;28;20440;-96
2021/10/16 22:59:23;;;;;;;69.27;12.70;;;;;;;;;;5083377;28;20441;-93
2021/10/16 23:01:50;;;;;;;68.50;12.80;;;;;;;;;;5083891;28;20447;-95
2021/10/16 23:04:16;;;;;;;70.27;11.80;;;;;;;;;;5086390;28;20447;-96
2021/10/16 23:06:43;;;;;;;69.90;12.70;;;;;;;;;;5083331;28;20499;-96
2021/10/16 23:09:09;;;;;;;68.27;12.17;;;;;;;;;;5082425;28;20468;-96
2021/10/16 23:11:36;;;;;;;67.60;12.43;;;;;;;;;;5082236;28;21017;-93
2021/10/16 23:14:02;;;;;;;69.07;12.53;;;;;;;;;;5082091;28;20454;-96
2021/10/16 23:16:30;;;;;;;69.27;12.87;;;;;;;;;;5082175;28;20455;-94
2021/10/16 23:18:57;;;;;;;67.53;12.43;;;;;;;;;;5083433;28;20470;-93
2021/10/16 23:21:23;;;;;;;70.47;12.13;;;;;;;;;;5080658;28;20437;-93
2021/10/16 23:23:50;;;;;;;68.57;13.37;;;;;;;;;;5074714;28;20511;-95
2021/10/16 23:26:16;;;;;;;69.17;12.67;;;;;;;;;;5072865;28;20468;-94
2021/10/16 23:28:43;;;;;;;76.10;12.53;;;;;;;;;;5087398;28;20455;-93
2021/10/16 23:31:09;;;;;;;67.70;13.00;;;;;;;;;;5086239;28;20451;-94
2021/10/16 23:33:37;;;;;;;69.97;13.27;;;;;;;;;;5086473;28;20443;-95
2021/10/16 23:36:04;;;;;;;68.43;12.00;;;;;;;;;;5085640;28;20456;-93
2021/10/16 23:38:30;;;;;;;69.77;12.50;;;;;;;;;;5084472;28;20456;-95
2021/10/16 23:40:57;;;;;;;67.70;12.43;;;;;;;;;;5065066;28;20433;-95
2021/10/16 23:43:23;;;;;;;67.90;13.90;;;;;;;;;;5065269;28;20460;-94
2021/10/16 23:45:50;;;;;;;66.80;12.07;;;;;;;;;;5065262;28;20878;-94
2021/10/16 23:48:17;;;;;;;66.80;12.40;;;;;;;;;;5063674;28;20488;-95
2021/10/16 23:50:45;;;;;;;69.37;12.57;;;;;;;;;;5064730;28;20444;-96
2021/10/16 23:53:11;;;;;;;68.07;12.40;;;;;;;;;;5066137;28;20453;-94
2021/10/16 23:55:38;;;;;;;68.20;13.13;;;;;;;;;;5067952;28;20963;-96
2021/10/16 23:58:05;;;;;;;67.07;12.17;;;;;;;;;;5084565;28;20466;-94
